createdAt,value
2023-03-11T00:00:52.528Z,5.00
2023-03-11T00:03:19.795Z,3.90
2023-03-11T00:05:46.823Z,4.10
2023-03-11T00:08:15.378Z,3.50
2023-03-11T00:10:42.962Z,5.70
2023-03-11T00:13:10.983Z,4.10
2023-03-11T00:15:37.984Z,4.50
2023-03-11T00:18:04.873Z,6.60
2023-03-11T00:20:33.396Z,2.80
2023-03-11T00:23:00.501Z,4.60
2023-03-11T00:25:28.714Z,3.10
2023-03-11T00:27:55.647Z,3.40
2023-03-11T00:30:23.083Z,1.80
2023-03-11T00:32:54.309Z,2.30
2023-03-11T00:35:23.048Z,2.50
2023-03-11T00:37:52.430Z,1.70
2023-03-11T00:40:20.187Z,3.00
2023-03-11T00:42:46.847Z,2.70
2023-03-11T00:45:13.789Z,4.50
2023-03-11T00:47:40.407Z,5.10
2023-03-11T00:50:07.749Z,6.50
2023-03-11T00:52:34.438Z,4.30
2023-03-11T00:55:01.161Z,6.50
2023-03-11T00:57:29.184Z,6.60
2023-03-11T00:59:56.349Z,6.50
2023-03-11T01:02:23.023Z,6.50
2023-03-11T01:04:53.295Z,6.50
2023-03-11T01:07:19.890Z,7.90
2023-03-11T01:09:46.572Z,7.90
2023-03-11T01:12:13.389Z,8.30
2023-03-11T01:14:39.945Z,9.60
2023-03-11T01:17:06.500Z,10.60
2023-03-11T01:19:33.111Z,10.10
2023-03-11T01:21:59.697Z,10.30
2023-03-11T01:24:26.274Z,11.60
2023-03-11T01:26:52.830Z,11.50
2023-03-11T01:29:19.385Z,12.10
2023-03-11T01:31:45.921Z,12.50
2023-03-11T01:34:12.767Z,11.60
2023-03-11T01:36:39.330Z,10.90
2023-03-11T01:39:06.037Z,11.90
2023-03-11T01:41:32.968Z,11.80
2023-03-11T01:43:59.597Z,11.80
2023-03-11T01:46:27.240Z,12.20
2023-03-11T01:48:53.832Z,13.90
2023-03-11T01:51:43.660Z,14.80
2023-03-11T01:54:12.796Z,15.50
2023-03-11T01:56:41.182Z,14.30
2023-03-11T01:59:08.899Z,15.50
2023-03-11T02:01:38.200Z,15.50
2023-03-11T02:04:04.854Z,16.80
2023-03-11T02:06:32.423Z,17.60
2023-03-11T02:09:00.373Z,18.10
2023-03-11T02:11:28.702Z,19.70
2023-03-11T02:13:57.565Z,20.40
2023-03-11T02:16:24.192Z,21.80
2023-03-11T02:18:50.891Z,21.30
2023-03-11T02:21:22.618Z,21.40
2023-03-11T02:24:08.037Z,23.70
2023-03-11T02:26:43.197Z,23.60
2023-03-11T02:29:10.973Z,22.40
2023-03-11T02:31:38.504Z,22.60
2023-03-11T02:34:08.001Z,23.70
2023-03-11T02:36:37.000Z,23.90
2023-03-11T02:39:04.442Z,24.40
2023-03-11T02:41:32.122Z,24.50
2023-03-11T02:43:59.000Z,24.40
2023-03-11T02:46:25.845Z,24.40
2023-03-11T02:48:53.449Z,24.30
2023-03-11T02:51:20.173Z,24.30
2023-03-11T02:53:51.481Z,24.20
2023-03-11T02:56:18.096Z,24.20
2023-03-11T02:58:44.655Z,23.40
2023-03-11T03:01:11.296Z,21.60
2023-03-11T03:03:37.950Z,21.40
2023-03-11T03:06:04.799Z,20.50
2023-03-11T03:08:31.763Z,21.00
2023-03-11T03:10:59.841Z,19.50
2023-03-11T03:13:27.290Z,19.70
2023-03-11T03:15:53.881Z,18.50
2023-03-11T03:18:20.478Z,18.50
2023-03-11T03:20:47.065Z,18.20
2023-03-11T03:23:14.689Z,17.60
2023-03-11T03:25:44.887Z,19.20
2023-03-11T03:28:12.304Z,19.40
2023-03-11T03:30:39.397Z,18.40
2023-03-11T03:33:07.000Z,19.00
2023-03-11T03:35:34.090Z,18.20
2023-03-11T03:38:01.297Z,19.60
2023-03-11T03:40:27.964Z,18.50
2023-03-11T03:42:54.551Z,18.50
2023-03-11T03:45:21.120Z,19.30
2023-03-11T03:47:47.677Z,19.70
2023-03-11T03:50:14.548Z,18.90
2023-03-11T03:52:41.129Z,17.80
2023-03-11T03:55:08.085Z,18.50
2023-03-11T03:57:34.687Z,18.10
2023-03-11T04:00:01.260Z,16.60
2023-03-11T04:02:28.170Z,15.20
2023-03-11T04:04:54.831Z,16.30
2023-03-11T04:07:21.428Z,16.80
2023-03-11T04:09:48.128Z,16.90
2023-03-11T04:12:15.364Z,17.60
2023-03-11T04:14:42.388Z,17.00
2023-03-11T04:17:10.879Z,16.60
2023-03-11T04:19:37.570Z,16.30
2023-03-11T04:22:04.230Z,15.80
2023-03-11T04:24:30.807Z,16.90
2023-03-11T04:26:57.534Z,16.00
2023-03-11T04:29:24.089Z,16.70
2023-03-11T04:31:50.670Z,16.60
2023-03-11T04:34:17.209Z,15.70
2023-03-11T04:36:43.837Z,16.40
2023-03-11T04:39:10.397Z,15.10
2023-03-11T04:41:37.173Z,15.50
2023-03-11T04:44:03.759Z,16.60
2023-03-11T04:46:30.366Z,15.70
2023-03-11T04:48:57.275Z,17.10
2023-03-11T04:51:23.984Z,16.20
2023-03-11T04:53:50.572Z,17.00
2023-03-11T04:56:17.255Z,16.40
2023-03-11T04:58:43.905Z,18.90
2023-03-11T05:01:10.492Z,18.00
2023-03-11T05:03:37.085Z,17.80
2023-03-11T05:06:03.897Z,19.50
2023-03-11T05:08:30.547Z,19.30
2023-03-11T05:10:57.131Z,20.20
2023-03-11T05:13:23.739Z,20.20
2023-03-11T05:15:50.450Z,20.60
2023-03-11T05:18:17.313Z,19.50
2023-03-11T05:20:43.956Z,20.50
2023-03-11T05:23:10.608Z,19.50
2023-03-11T05:25:37.205Z,20.30
2023-03-11T05:28:04.324Z,19.50
2023-03-11T05:30:30.897Z,20.10
2023-03-11T05:32:57.572Z,19.80
2023-03-11T05:35:24.259Z,19.60
2023-03-11T05:37:51.051Z,20.80
2023-03-11T05:40:18.180Z,20.20
2023-03-11T05:42:44.964Z,20.70
2023-03-11T05:45:11.560Z,21.50
2023-03-11T05:47:38.137Z,22.10
2023-03-11T05:50:05.181Z,21.50
2023-03-11T05:52:33.844Z,22.50
2023-03-11T05:55:00.525Z,22.40
2023-03-11T05:57:27.112Z,23.00
2023-03-11T05:59:53.685Z,22.60
2023-03-11T06:02:21.196Z,22.60
2023-03-11T06:04:48.220Z,23.50
2023-03-11T06:07:16.163Z,22.30
2023-03-11T06:09:42.700Z,22.60
2023-03-11T06:12:09.362Z,21.60
2023-03-11T06:14:36.111Z,21.80
2023-03-11T06:17:04.098Z,20.80
2023-03-11T06:19:30.649Z,22.70
2023-03-11T06:21:57.224Z,21.10
2023-03-11T06:24:23.783Z,21.10
2023-03-11T06:26:53.476Z,20.30
2023-03-11T06:29:21.984Z,21.20
2023-03-11T06:31:48.590Z,20.60
2023-03-11T06:34:15.253Z,20.40
2023-03-11T06:36:41.839Z,20.50
2023-03-11T06:39:09.839Z,20.50
2023-03-11T06:41:36.483Z,20.30
2023-03-11T06:44:04.198Z,20.40
2023-03-11T06:46:30.998Z,20.60
2023-03-11T06:48:57.690Z,19.70
2023-03-11T06:51:24.539Z,19.80
2023-03-11T06:53:52.326Z,19.60
2023-03-11T06:56:19.885Z,20.60
2023-03-11T06:58:46.781Z,19.70
2023-03-11T07:01:14.865Z,18.50
2023-03-11T07:03:41.952Z,19.80
2023-03-11T07:06:13.643Z,20.30
2023-03-11T07:08:40.551Z,20.60
2023-03-11T07:11:08.322Z,19.40
2023-03-11T07:13:35.310Z,19.80
2023-03-11T07:16:02.840Z,21.20
2023-03-11T07:18:29.498Z,18.90
2023-03-11T07:20:56.137Z,20.20
2023-03-11T07:23:22.951Z,21.10
2023-03-11T07:25:49.606Z,22.10
2023-03-11T07:28:16.175Z,20.80
2023-03-11T07:30:44.460Z,20.20
2023-03-11T07:33:11.074Z,16.10
2023-03-11T07:35:37.757Z,16.10
2023-03-11T07:38:04.465Z,13.10
2023-03-11T07:40:31.017Z,11.60
2023-03-11T07:42:58.009Z,10.70
2023-03-11T07:45:24.545Z,10.20
2023-03-11T07:47:52.021Z,9.70
2023-03-11T07:50:19.117Z,10.80
2023-03-11T07:52:45.686Z,10.20
2023-03-11T07:55:12.231Z,7.80
2023-03-11T07:57:38.905Z,7.40
2023-03-11T08:00:06.188Z,7.40
2023-03-11T08:02:32.860Z,5.40
2023-03-11T08:04:59.416Z,5.80
2023-03-11T08:07:25.962Z,6.50
2023-03-11T08:09:52.729Z,7.50
2023-03-11T08:12:19.385Z,6.80
2023-03-11T08:14:46.005Z,4.70
2023-03-11T08:17:12.601Z,1.00
2023-03-11T08:19:39.136Z,1.00
2023-03-11T08:22:05.723Z,1.00
2023-03-11T08:24:32.381Z,1.00
2023-03-11T08:26:59.040Z,1.00
2023-03-11T08:29:25.722Z,1.00
2023-03-11T08:31:52.277Z,1.00
2023-03-11T08:34:21.094Z,1.00
2023-03-11T08:36:47.833Z,1.00
2023-03-11T08:39:14.450Z,1.00
2023-03-11T08:41:41.005Z,1.00
2023-03-11T08:44:07.675Z,1.00
2023-03-11T08:46:35.547Z,1.00
2023-03-11T08:49:04.726Z,1.00
2023-03-11T08:51:31.988Z,1.00
2023-03-11T08:53:59.178Z,1.00
2023-03-11T08:56:26.054Z,1.00
2023-03-11T08:58:52.884Z,1.00
2023-03-11T09:01:20.255Z,1.00
2023-03-11T09:03:47.245Z,1.00
2023-03-11T09:06:15.399Z,1.00
2023-03-11T09:08:42.995Z,1.00
2023-03-11T09:11:10.011Z,1.00
2023-03-11T09:13:36.642Z,1.00
2023-03-11T09:16:05.823Z,1.00
2023-03-11T09:18:32.713Z,1.00
2023-03-11T09:21:00.344Z,1.00
2023-03-11T09:23:26.926Z,1.00
2023-03-11T09:25:53.987Z,1.00
2023-03-11T09:28:20.727Z,1.00
2023-03-11T09:30:47.495Z,1.00
2023-03-11T09:33:14.036Z,1.00
2023-03-11T09:35:41.044Z,1.00
2023-03-11T09:38:07.636Z,1.00
2023-03-11T09:40:47.242Z,1.00
2023-03-11T09:43:31.368Z,1.00
2023-03-11T09:46:06.420Z,1.00
2023-03-11T09:48:48.852Z,1.00
2023-03-11T09:51:29.761Z,1.00
2023-03-11T09:54:09.043Z,1.00
2023-03-11T09:56:37.083Z,1.00
2023-03-11T09:59:09.295Z,1.00
2023-03-11T10:01:37.600Z,1.00
2023-03-11T10:04:13.112Z,1.00
2023-03-11T10:06:40.506Z,1.00
2023-03-11T10:09:16.907Z,1.00
2023-03-11T10:11:51.303Z,1.00
2023-03-11T10:14:21.063Z,1.00
2023-03-11T10:16:50.749Z,1.00
2023-03-11T10:19:23.139Z,1.00
2023-03-11T10:22:08.129Z,1.00
2023-03-11T10:24:37.746Z,1.00
2023-03-11T10:27:10.353Z,1.00
2023-03-11T10:29:50.336Z,1.00
2023-03-11T10:32:25.792Z,1.00
2023-03-11T10:34:56.883Z,1.00
2023-03-11T10:37:29.003Z,1.00
2023-03-11T10:40:07.789Z,1.00
2023-03-11T10:42:35.077Z,1.00
2023-03-11T10:45:02.066Z,1.00
2023-03-11T10:47:29.210Z,1.00
2023-03-11T10:49:55.769Z,1.00
2023-03-11T10:52:23.189Z,1.00
2023-03-11T10:54:59.102Z,1.00
2023-03-11T10:57:27.992Z,1.00
2023-03-11T10:59:58.636Z,1.00
2023-03-11T11:02:26.101Z,1.00
2023-03-11T11:05:04.172Z,1.00
2023-03-11T11:07:32.106Z,1.00
2023-03-11T11:10:17.016Z,1.00
2023-03-11T11:12:50.801Z,1.00
2023-03-11T11:15:25.229Z,1.00
2023-03-11T11:17:53.093Z,1.00
2023-03-11T11:20:20.070Z,1.00
2023-03-11T11:22:52.189Z,1.00
2023-03-11T11:25:26.624Z,1.00
2023-03-11T11:27:54.458Z,1.00
2023-03-11T11:30:21.196Z,1.00
2023-03-11T11:32:47.861Z,1.00
2023-03-11T11:35:15.497Z,1.00
2023-03-11T11:37:43.856Z,1.00
2023-03-11T11:40:16.573Z,1.00
2023-03-11T11:42:52.064Z,1.00
2023-03-11T11:45:36.873Z,1.00
2023-03-11T11:48:06.103Z,1.00
2023-03-11T11:50:34.121Z,1.00
2023-03-11T11:53:15.153Z,1.00
2023-03-11T11:55:44.789Z,1.00
2023-03-11T11:58:14.341Z,1.00
2023-03-11T12:00:45.735Z,1.00
2023-03-11T12:03:38.983Z,1.00
2023-03-11T12:06:12.293Z,1.00
2023-03-11T12:08:45.797Z,1.00
2023-03-11T12:11:40.906Z,1.00
2023-03-11T12:14:08.401Z,1.00
2023-03-11T12:16:41.523Z,1.00
2023-03-11T12:19:11.263Z,1.00
2023-03-11T12:21:37.888Z,1.00
2023-03-11T12:24:04.449Z,1.00
2023-03-11T12:26:35.349Z,1.00
2023-03-11T12:29:22.335Z,1.00
2023-03-11T12:31:49.053Z,1.00
2023-03-11T12:34:19.582Z,1.00
2023-03-11T12:36:46.953Z,1.00
2023-03-11T12:39:33.674Z,1.00
2023-03-11T12:42:18.956Z,1.00
2023-03-11T12:44:46.056Z,1.00
2023-03-11T12:47:23.317Z,1.00
2023-03-11T12:49:51.925Z,1.00
2023-03-11T12:52:26.610Z,1.00
2023-03-11T12:54:59.320Z,1.00
2023-03-11T12:57:36.442Z,1.00
2023-03-11T13:00:23.149Z,1.00
2023-03-11T13:02:55.935Z,1.00
2023-03-11T13:05:39.408Z,1.00
2023-03-11T13:08:12.693Z,1.00
2023-03-11T13:10:40.997Z,1.00
2023-03-11T13:13:26.403Z,1.00
2023-03-11T13:15:53.360Z,1.00
2023-03-11T13:18:27.777Z,1.00
2023-03-11T13:21:04.091Z,1.00
2023-03-11T13:23:30.680Z,1.00
2023-03-11T13:25:57.260Z,1.00
2023-03-11T13:28:42.696Z,1.00
2023-03-11T13:31:18.393Z,1.00
2023-03-11T13:33:51.207Z,1.00
2023-03-11T13:36:36.650Z,1.00
2023-03-11T13:39:18.532Z,1.00
2023-03-11T13:41:45.663Z,1.00
2023-03-11T13:44:14.759Z,1.00
2023-03-11T13:46:42.796Z,1.00
2023-03-11T13:49:24.627Z,1.00
2023-03-11T13:51:53.398Z,1.00
2023-03-11T13:54:29.115Z,1.00
2023-03-11T13:56:59.728Z,1.00
2023-03-11T13:59:27.410Z,1.00
2023-03-11T14:01:55.821Z,1.00
2023-03-11T14:04:25.732Z,1.00
2023-03-11T14:06:52.515Z,1.00
2023-03-11T14:09:19.869Z,1.00
2023-03-11T14:11:48.725Z,1.00
2023-03-11T14:14:31.953Z,1.00
2023-03-11T14:17:01.374Z,1.00
2023-03-11T14:19:28.841Z,1.00
2023-03-11T14:21:55.469Z,1.00
2023-03-11T14:24:23.680Z,1.00
2023-03-11T14:26:53.603Z,1.00
2023-03-11T14:29:20.794Z,1.00
2023-03-11T14:31:47.519Z,1.00
2023-03-11T14:34:18.634Z,1.00
2023-03-11T14:36:51.022Z,1.00
2023-03-11T14:39:33.772Z,1.00
2023-03-11T14:42:06.682Z,1.00
2023-03-11T14:44:39.401Z,1.00
2023-03-11T14:47:12.115Z,1.00
2023-03-11T14:49:39.397Z,1.00
2023-03-11T14:52:08.522Z,1.00
2023-03-11T14:54:36.260Z,1.00
2023-03-11T14:57:06.446Z,1.00
2023-03-11T14:59:34.047Z,1.00
2023-03-11T15:02:19.652Z,1.00
2023-03-11T15:04:46.693Z,1.00
2023-03-11T15:07:13.389Z,1.00
2023-03-11T15:09:40.773Z,1.00
2023-03-11T15:12:07.958Z,1.00
2023-03-11T15:14:36.235Z,1.00
2023-03-11T15:17:10.459Z,1.00
2023-03-11T15:19:39.941Z,1.00
2023-03-11T15:22:21.383Z,1.00
2023-03-11T15:24:58.952Z,1.00
2023-03-11T15:27:33.785Z,1.00
2023-03-11T15:30:01.071Z,1.00
2023-03-11T15:32:42.176Z,1.00
2023-03-11T15:35:10.643Z,1.00
2023-03-11T15:37:37.754Z,1.00
2023-03-11T15:40:23.425Z,1.00
2023-03-11T15:43:10.927Z,1.00
2023-03-11T15:45:37.596Z,1.00
2023-03-11T15:48:04.216Z,1.00
2023-03-11T15:50:46.758Z,1.00
2023-03-11T15:53:18.665Z,1.00
2023-03-11T15:55:45.382Z,1.00
2023-03-11T15:58:14.058Z,1.00
2023-03-11T16:00:42.427Z,1.00
2023-03-11T16:03:08.983Z,1.00
2023-03-11T16:05:35.516Z,1.00
2023-03-11T16:08:02.139Z,1.00
2023-03-11T16:10:28.885Z,1.00
2023-03-11T16:12:55.985Z,1.00
2023-03-11T16:15:28.602Z,1.00
2023-03-11T16:17:56.792Z,1.00
2023-03-11T16:20:24.201Z,1.00
2023-03-11T16:22:52.544Z,1.00
2023-03-11T16:25:28.283Z,1.00
2023-03-11T16:27:55.721Z,1.00
2023-03-11T16:30:23.059Z,1.00
2023-03-11T16:32:49.596Z,1.00
2023-03-11T16:35:17.782Z,1.00
2023-03-11T16:37:44.546Z,1.00
2023-03-11T16:40:12.043Z,1.00
2023-03-11T16:42:38.695Z,1.00
2023-03-11T16:45:05.541Z,1.00
2023-03-11T16:47:32.112Z,1.00
2023-03-11T16:49:58.680Z,1.00
2023-03-11T16:52:25.376Z,1.00
2023-03-11T16:54:51.977Z,1.00
2023-03-11T16:57:18.702Z,1.00
2023-03-11T16:59:45.726Z,1.00
2023-03-11T17:02:12.322Z,1.00
2023-03-11T17:04:38.923Z,1.00
2023-03-11T17:07:05.933Z,1.00
2023-03-11T17:09:33.122Z,1.00
2023-03-11T17:11:59.693Z,1.00
2023-03-11T17:14:26.503Z,1.00
2023-03-11T17:16:53.087Z,1.00
2023-03-11T17:19:19.703Z,1.00
2023-03-11T17:21:46.469Z,1.00
2023-03-11T17:24:13.122Z,1.00
2023-03-11T17:26:39.693Z,1.00
2023-03-11T17:29:06.269Z,1.00
2023-03-11T17:31:32.996Z,1.00
2023-03-11T17:33:59.629Z,1.00
2023-03-11T17:36:26.521Z,1.00
2023-03-11T17:38:54.274Z,1.00
2023-03-11T17:41:21.377Z,1.00
2023-03-11T17:43:50.248Z,1.00
2023-03-11T17:46:18.768Z,1.00
2023-03-11T17:48:46.677Z,1.00
2023-03-11T17:51:14.574Z,1.00
2023-03-11T17:53:43.890Z,1.00
2023-03-11T17:56:12.874Z,1.00
2023-03-11T17:58:39.579Z,1.00
2023-03-11T18:01:07.415Z,1.00
2023-03-11T18:03:34.225Z,1.00
2023-03-11T18:06:01.958Z,1.00
2023-03-11T18:08:29.058Z,1.00
2023-03-11T18:10:58.149Z,1.00
2023-03-11T18:13:24.794Z,1.00
2023-03-11T18:15:58.446Z,1.00
2023-03-11T18:18:25.094Z,1.00
2023-03-11T18:20:51.666Z,1.00
2023-03-11T18:23:18.219Z,1.00
2023-03-11T18:25:45.314Z,1.00
2023-03-11T18:28:11.938Z,1.00
2023-03-11T18:30:38.526Z,1.00
2023-03-11T18:33:05.166Z,1.00
2023-03-11T18:35:31.801Z,1.00
2023-03-11T18:37:58.366Z,1.00
2023-03-11T18:40:26.807Z,1.00
2023-03-11T18:42:53.497Z,1.00
2023-03-11T18:45:20.112Z,1.00
2023-03-11T18:47:46.762Z,1.00
2023-03-11T18:50:13.466Z,1.00
2023-03-11T18:52:40.045Z,1.00
2023-03-11T18:55:06.731Z,1.00
2023-03-11T18:57:33.306Z,1.00
2023-03-11T18:59:59.981Z,1.00
2023-03-11T19:02:26.548Z,1.00
2023-03-11T19:04:53.170Z,1.40
2023-03-11T19:07:19.793Z,1.50
2023-03-11T19:09:48.244Z,2.40
2023-03-11T19:12:14.800Z,3.20
2023-03-11T19:14:41.400Z,4.30
2023-03-11T19:17:08.148Z,6.00
2023-03-11T19:19:34.739Z,6.10
2023-03-11T19:22:01.350Z,5.90
2023-03-11T19:24:27.934Z,6.00
2023-03-11T19:26:54.477Z,7.90
2023-03-11T19:29:23.676Z,9.30
2023-03-11T19:31:50.511Z,9.90
2023-03-11T19:34:17.075Z,10.50
2023-03-11T19:36:43.680Z,10.40
2023-03-11T19:39:10.260Z,11.70
2023-03-11T19:41:36.929Z,13.10
2023-03-11T19:44:04.230Z,14.20
2023-03-11T19:46:34.335Z,14.80
2023-03-11T19:49:01.101Z,14.90
2023-03-11T19:51:32.872Z,14.80
2023-03-11T19:54:05.592Z,14.80
2023-03-11T19:56:32.166Z,15.20
2023-03-11T19:58:58.678Z,16.30
2023-03-11T20:01:28.163Z,16.40
2023-03-11T20:03:54.809Z,16.60
2023-03-11T20:06:22.743Z,16.70
2023-03-11T20:08:50.088Z,17.20
2023-03-11T20:11:16.913Z,17.10
2023-03-11T20:13:44.122Z,18.20
2023-03-11T20:16:12.691Z,18.40
2023-03-11T20:18:39.914Z,18.50
2023-03-11T20:21:07.813Z,19.10
2023-03-11T20:23:34.642Z,19.00
2023-03-11T20:26:04.860Z,19.90
2023-03-11T20:28:31.469Z,20.20
2023-03-11T20:30:58.185Z,21.10
2023-03-11T20:33:24.857Z,22.20
2023-03-11T20:35:51.541Z,23.40
2023-03-11T20:38:18.248Z,23.40
2023-03-11T20:40:44.888Z,23.30
2023-03-11T20:43:11.577Z,23.60
2023-03-11T20:45:38.273Z,24.20
2023-03-11T20:48:04.919Z,24.30
2023-03-11T20:50:31.540Z,25.10
2023-03-11T20:52:58.193Z,25.20
2023-03-11T20:55:25.572Z,25.80
2023-03-11T20:57:54.244Z,25.50
2023-03-11T21:00:21.082Z,25.50
2023-03-11T21:02:47.785Z,26.00
2023-03-11T21:05:14.515Z,26.90
2023-03-11T21:07:41.195Z,27.60
2023-03-11T21:10:09.843Z,27.70
2023-03-11T21:12:36.612Z,28.40
2023-03-11T21:15:03.855Z,29.10
2023-03-11T21:17:30.590Z,29.10
2023-03-11T21:19:57.417Z,29.90
2023-03-11T21:22:23.961Z,30.80
2023-03-11T21:24:51.361Z,31.10
2023-03-11T21:27:20.906Z,31.70
2023-03-11T21:29:47.518Z,32.20
2023-03-11T21:32:14.322Z,32.20
2023-03-11T21:34:41.015Z,32.20
2023-03-11T21:37:07.649Z,32.10
2023-03-11T21:39:34.370Z,32.20
2023-03-11T21:42:01.043Z,33.80
2023-03-11T21:44:27.911Z,35.10
2023-03-11T21:46:54.560Z,35.80
2023-03-11T21:49:21.616Z,35.80
2023-03-11T21:51:48.223Z,36.00
2023-03-11T21:54:15.352Z,35.30
2023-03-11T21:56:41.996Z,34.90
2023-03-11T21:59:08.870Z,35.40
2023-03-11T22:01:35.671Z,35.90
2023-03-11T22:04:02.562Z,36.40
2023-03-11T22:06:30.898Z,38.80
2023-03-11T22:08:57.702Z,39.20
2023-03-11T22:11:24.372Z,40.60
2023-03-11T22:13:52.070Z,41.20
2023-03-11T22:16:19.207Z,42.50
2023-03-11T22:18:46.711Z,42.00
2023-03-11T22:21:16.897Z,42.50
2023-03-11T22:23:44.609Z,42.40
2023-03-11T22:26:11.235Z,42.40
2023-03-11T22:28:37.811Z,42.40
2023-03-11T22:31:08.713Z,42.40
2023-03-11T22:33:35.359Z,42.30
2023-03-11T22:36:04.331Z,42.20
2023-03-11T22:38:31.482Z,42.20
2023-03-11T22:41:00.280Z,42.20
2023-03-11T22:43:27.369Z,42.20
2023-03-11T22:45:54.018Z,44.20
2023-03-11T22:48:20.585Z,44.80
2023-03-11T22:50:47.321Z,45.50
2023-03-11T22:53:15.474Z,45.30
2023-03-11T22:55:42.832Z,46.20
2023-03-11T22:58:10.001Z,47.60
2023-03-11T23:00:36.840Z,48.30
2023-03-11T23:03:03.634Z,49.70
2023-03-11T23:05:30.415Z,49.70
2023-03-11T23:07:56.970Z,50.30
2023-03-11T23:10:23.680Z,50.50
2023-03-11T23:12:50.193Z,51.10
2023-03-11T23:15:17.888Z,52.30
2023-03-11T23:17:44.956Z,52.20
2023-03-11T23:20:13.294Z,52.30
2023-03-11T23:22:40.737Z,52.30
2023-03-11T23:25:08.882Z,52.20
2023-03-11T23:27:35.613Z,52.20
2023-03-11T23:30:02.363Z,52.20
2023-03-11T23:32:28.919Z,52.20
2023-03-11T23:34:55.503Z,52.20
2023-03-11T23:37:22.172Z,52.20
2023-03-11T23:39:48.785Z,52.20
2023-03-11T23:42:25.502Z,53.20
2023-03-11T23:44:53.027Z,52.10
2023-03-11T23:47:19.772Z,52.10
2023-03-11T23:49:46.434Z,52.10
2023-03-11T23:52:13.133Z,52.20
2023-03-11T23:54:39.697Z,53.70
2023-03-11T23:57:06.275Z,54.00
2023-03-11T23:59:32.969Z,54.30
